sensor_id;sensor_type;location;lat;lon;timestamp;pressure;altitude;pressure_sealevel;temperature;humidity
7836;BME280;3963;42.658;23.298;2023-05-09T00:00:29;59781.31;;;12.43;100.00
7836;BME280;3963;42.658;23.298;2023-05-09T00:02:57;59794.41;;;12.45;100.00
7836;BME280;3963;42.658;23.298;2023-05-09T00:05:25;59792.06;;;12.38;100.00
7836;BME280;3963;42.658;23.298;2023-05-09T00:07:52;59783.03;;;12.32;100.00
7836;BME280;3963;42.658;23.298;2023-05-09T00:10:18;59740.88;;;12.29;100.00
7836;BME280;3963;42.658;23.298;2023-05-09T00:12:45;59754.47;;;12.32;100.00
7836;BME280;3963;42.658;23.298;2023-05-09T00:15:14;59754.56;;;12.20;100.00
7836;BME280;3963;42.658;23.298;2023-05-09T00:17:40;59759.22;;;12.34;100.00
7836;BME280;3963;42.658;23.298;2023-05-09T00:20:09;59793.06;;;12.37;100.00
7836;BME280;3963;42.658;23.298;2023-05-09T00:22:39;59780.69;;;12.40;100.00
7836;BME280;3963;42.658;23.298;2023-05-09T00:25:07;59791.28;;;12.45;100.00
7836;BME280;3963;42.658;23.298;2023-05-09T00:27:34;59790.28;;;12.46;100.00
7836;BME280;3963;42.658;23.298;2023-05-09T00:30:01;59774.78;;;12.49;100.00
7836;BME280;3963;42.658;23.298;2023-05-09T00:32:28;59776.84;;;12.48;100.00
7836;BME280;3963;42.658;23.298;2023-05-09T00:34:55;59799.88;;;12.53;100.00
7836;BME280;3963;42.658;23.298;2023-05-09T00:37:22;59790.28;;;12.61;100.00
7836;BME280;3963;42.658;23.298;2023-05-09T00:39:50;59784.25;;;12.67;100.00
7836;BME280;3963;42.658;23.298;2023-05-09T00:42:17;59808.97;;;12.76;100.00
7836;BME280;3963;42.658;23.298;2023-05-09T00:44:43;59853.88;;;12.82;100.00
7836;BME280;3963;42.658;23.298;2023-05-09T00:47:10;59823.59;;;12.77;100.00
7836;BME280;3963;42.658;23.298;2023-05-09T00:49:37;59839.53;;;12.73;100.00
7836;BME280;3963;42.658;23.298;2023-05-09T00:52:04;59796.00;;;12.61;100.00
7836;BME280;3963;42.658;23.298;2023-05-09T00:54:31;59789.09;;;12.57;100.00
7836;BME280;3963;42.658;23.298;2023-05-09T00:56:59;59774.50;;;12.56;100.00
7836;BME280;3963;42.658;23.298;2023-05-09T00:59:26;59770.94;;;12.43;100.00
7836;BME280;3963;42.658;23.298;2023-05-09T01:01:53;59767.81;;;12.42;100.00
7836;BME280;3963;42.658;23.298;2023-05-09T01:04:20;59765.63;;;12.55;100.00
7836;BME280;3963;42.658;23.298;2023-05-09T01:06:54;59737.38;;;12.33;100.00
7836;BME280;3963;42.658;23.298;2023-05-09T01:09:28;59745.25;;;12.21;100.00
7836;BME280;3963;42.658;23.298;2023-05-09T01:12:06;59760.13;;;12.15;100.00
7836;BME280;3963;42.658;23.298;2023-05-09T01:14:39;59732.72;;;12.04;100.00
7836;BME280;3963;42.658;23.298;2023-05-09T01:17:10;59705.81;;;11.91;100.00
7836;BME280;3963;42.658;23.298;2023-05-09T01:19:53;59700.34;;;11.84;100.00
7836;BME280;3963;42.658;23.298;2023-05-09T01:22:26;59711.00;;;11.77;100.00
7836;BME280;3963;42.658;23.298;2023-05-09T01:25:11;59695.69;;;11.70;100.00
7836;BME280;3963;42.658;23.298;2023-05-09T01:27:55;59733.63;;;11.71;100.00
7836;BME280;3963;42.658;23.298;2023-05-09T01:30:28;59686.81;;;11.68;100.00
7836;BME280;3963;42.658;23.298;2023-05-09T01:32:59;59687.13;;;11.76;100.00
7836;BME280;3963;42.658;23.298;2023-05-09T01:35:29;59689.09;;;11.73;100.00
7836;BME280;3963;42.658;23.298;2023-05-09T01:37:57;59708.84;;;11.75;100.00
7836;BME280;3963;42.658;23.298;2023-05-09T01:40:25;59694.91;;;11.76;100.00
7836;BME280;3963;42.658;23.298;2023-05-09T01:42:58;59718.97;;;11.82;100.00
7836;BME280;3963;42.658;23.298;2023-05-09T01:45:28;59721.81;;;11.89;100.00
7836;BME280;3963;42.658;23.298;2023-05-09T01:47:56;59684.59;;;11.93;100.00
7836;BME280;3963;42.658;23.298;2023-05-09T01:50:24;59706.06;;;11.84;100.00
7836;BME280;3963;42.658;23.298;2023-05-09T01:52:54;59660.19;;;11.78;100.00
7836;BME280;3963;42.658;23.298;2023-05-09T01:55:25;59689.25;;;11.78;100.00
7836;BME280;3963;42.658;23.298;2023-05-09T01:57:53;59704.19;;;11.75;100.00
7836;BME280;3963;42.658;23.298;2023-05-09T02:00:22;59706.34;;;11.77;100.00
7836;BME280;3963;42.658;23.298;2023-05-09T02:02:53;59683.25;;;11.85;100.00
7836;BME280;3963;42.658;23.298;2023-05-09T02:05:23;59721.28;;;11.89;100.00
7836;BME280;3963;42.658;23.298;2023-05-09T02:07:54;59713.13;;;11.93;100.00
7836;BME280;3963;42.658;23.298;2023-05-09T02:10:21;59701.75;;;11.95;100.00
7836;BME280;3963;42.658;23.298;2023-05-09T02:12:49;59727.44;;;12.02;100.00
7836;BME280;3963;42.658;23.298;2023-05-09T02:15:16;59785.88;;;12.10;100.00
7836;BME280;3963;42.658;23.298;2023-05-09T02:17:43;59715.72;;;12.08;100.00
7836;BME280;3963;42.658;23.298;2023-05-09T02:20:12;59716.81;;;12.09;100.00
7836;BME280;3963;42.658;23.298;2023-05-09T02:22:40;59713.13;;;12.08;100.00
7836;BME280;3963;42.658;23.298;2023-05-09T02:25:09;59694.78;;;12.03;100.00
7836;BME280;3963;42.658;23.298;2023-05-09T02:27:39;59730.22;;;12.07;100.00
7836;BME280;3963;42.658;23.298;2023-05-09T02:30:08;59692.53;;;12.13;100.00
7836;BME280;3963;42.658;23.298;2023-05-09T02:32:38;59739.34;;;12.15;100.00
7836;BME280;3963;42.658;23.298;2023-05-09T02:35:07;59746.16;;;12.17;100.00
7836;BME280;3963;42.658;23.298;2023-05-09T02:37:38;59734.25;;;12.18;100.00
7836;BME280;3963;42.658;23.298;2023-05-09T02:40:07;59756.72;;;12.22;100.00
7836;BME280;3963;42.658;23.298;2023-05-09T02:42:35;59721.78;;;12.18;100.00
7836;BME280;3963;42.658;23.298;2023-05-09T02:45:02;59770.06;;;12.17;100.00
7836;BME280;3963;42.658;23.298;2023-05-09T02:47:28;59746.69;;;12.17;100.00
7836;BME280;3963;42.658;23.298;2023-05-09T02:49:56;59770.16;;;12.20;100.00
7836;BME280;3963;42.658;23.298;2023-05-09T02:52:23;59729.88;;;12.11;100.00
7836;BME280;3963;42.658;23.298;2023-05-09T02:54:52;59723.41;;;12.20;100.00
7836;BME280;3963;42.658;23.298;2023-05-09T02:57:19;59742.13;;;12.20;100.00
7836;BME280;3963;42.658;23.298;2023-05-09T02:59:46;59757.41;;;12.28;100.00
7836;BME280;3963;42.658;23.298;2023-05-09T03:02:13;59783.56;;;12.33;100.00
7836;BME280;3963;42.658;23.298;2023-05-09T03:04:40;59759.03;;;12.14;100.00
7836;BME280;3963;42.658;23.298;2023-05-09T03:07:07;59759.75;;;12.20;100.00
7836;BME280;3963;42.658;23.298;2023-05-09T03:09:34;59766.75;;;12.27;100.00
7836;BME280;3963;42.658;23.298;2023-05-09T03:12:03;59724.94;;;12.19;100.00
7836;BME280;3963;42.658;23.298;2023-05-09T03:14:30;59740.88;;;12.14;100.00
7836;BME280;3963;42.658;23.298;2023-05-09T03:16:57;59727.44;;;12.16;100.00
7836;BME280;3963;42.658;23.298;2023-05-09T03:19:24;59733.78;;;12.20;100.00
7836;BME280;3963;42.658;23.298;2023-05-09T03:21:50;59739.53;;;12.20;100.00
7836;BME280;3963;42.658;23.298;2023-05-09T03:24:17;59725.75;;;12.12;100.00
7836;BME280;3963;42.658;23.298;2023-05-09T03:26:45;59737.19;;;12.13;100.00
7836;BME280;3963;42.658;23.298;2023-05-09T03:29:13;59745.44;;;12.11;100.00
7836;BME280;3963;42.658;23.298;2023-05-09T03:31:40;59724.94;;;12.19;100.00
7836;BME280;3963;42.658;23.298;2023-05-09T03:34:07;59772.56;;;12.15;100.00
7836;BME280;3963;42.658;23.298;2023-05-09T03:36:40;59787.22;;;12.19;100.00
7836;BME280;3963;42.658;23.298;2023-05-09T03:39:07;59757.00;;;12.15;100.00
7836;BME280;3963;42.658;23.298;2023-05-09T03:41:35;59758.50;;;12.14;100.00
7836;BME280;3963;42.658;23.298;2023-05-09T03:44:02;59758.97;;;12.12;100.00
7836;BME280;3963;42.658;23.298;2023-05-09T03:46:30;59744.00;;;12.15;100.00
7836;BME280;3963;42.658;23.298;2023-05-09T03:48:57;59770.69;;;12.06;100.00
7836;BME280;3963;42.658;23.298;2023-05-09T03:51:24;59717.59;;;12.02;100.00
7836;BME280;3963;42.658;23.298;2023-05-09T03:53:50;59715.56;;;12.03;100.00
7836;BME280;3963;42.658;23.298;2023-05-09T03:56:17;59703.38;;;11.96;100.00
7836;BME280;3963;42.658;23.298;2023-05-09T03:58:44;59732.38;;;11.94;100.00
7836;BME280;3963;42.658;23.298;2023-05-09T04:01:11;59750.09;;;11.96;100.00
7836;BME280;3963;42.658;23.298;2023-05-09T04:03:40;59689.06;;;12.02;100.00
7836;BME280;3963;42.658;23.298;2023-05-09T04:06:07;59752.94;;;12.04;100.00
7836;BME280;3963;42.658;23.298;2023-05-09T04:08:33;59766.63;;;11.95;100.00
7836;BME280;3963;42.658;23.298;2023-05-09T04:11:00;59742.56;;;11.89;100.00
7836;BME280;3963;42.658;23.298;2023-05-09T04:13:27;59730.75;;;11.93;100.00
7836;BME280;3963;42.658;23.298;2023-05-09T04:15:54;59712.88;;;12.00;100.00
7836;BME280;3963;42.658;23.298;2023-05-09T04:18:21;59753.03;;;11.92;100.00
7836;BME280;3963;42.658;23.298;2023-05-09T04:20:51;59712.88;;;11.86;100.00
7836;BME280;3963;42.658;23.298;2023-05-09T04:23:17;59725.22;;;11.97;100.00
7836;BME280;3963;42.658;23.298;2023-05-09T04:25:44;59720.56;;;11.98;100.00
7836;BME280;3963;42.658;23.298;2023-05-09T04:28:11;59716.63;;;12.04;100.00
7836;BME280;3963;42.658;23.298;2023-05-09T04:30:38;59727.53;;;12.04;100.00
7836;BME280;3963;42.658;23.298;2023-05-09T04:33:05;59756.72;;;12.07;100.00
7836;BME280;3963;42.658;23.298;2023-05-09T04:35:31;59768.00;;;12.03;100.00
7836;BME280;3963;42.658;23.298;2023-05-09T04:38:00;59737.75;;;12.14;100.00
7836;BME280;3963;42.658;23.298;2023-05-09T04:40:27;59698.06;;;12.23;100.00
7836;BME280;3963;42.658;23.298;2023-05-09T04:42:53;59799.16;;;12.33;100.00
7836;BME280;3963;42.658;23.298;2023-05-09T04:45:21;59777.75;;;12.44;100.00
7836;BME280;3963;42.658;23.298;2023-05-09T04:47:48;59813.31;;;12.51;100.00
7836;BME280;3963;42.658;23.298;2023-05-09T04:50:15;59811.13;;;12.49;100.00
7836;BME280;3963;42.658;23.298;2023-05-09T04:52:42;59785.72;;;12.49;100.00
7836;BME280;3963;42.658;23.298;2023-05-09T04:55:10;59829.16;;;12.58;100.00
7836;BME280;3963;42.658;23.298;2023-05-09T04:57:37;59833.91;;;12.75;100.00
7836;BME280;3963;42.658;23.298;2023-05-09T05:00:05;59808.09;;;12.65;100.00
7836;BME280;3963;42.658;23.298;2023-05-09T05:02:32;59798.16;;;12.63;100.00
7836;BME280;3963;42.658;23.298;2023-05-09T05:04:59;59789.28;;;12.62;100.00
7836;BME280;3963;42.658;23.298;2023-05-09T05:07:25;59804.41;;;12.64;100.00
7836;BME280;3963;42.658;23.298;2023-05-09T05:09:52;59801.72;;;12.76;100.00
7836;BME280;3963;42.658;23.298;2023-05-09T05:12:20;59840.25;;;12.78;100.00
7836;BME280;3963;42.658;23.298;2023-05-09T05:14:47;59870.63;;;12.85;100.00
7836;BME280;3963;42.658;23.298;2023-05-09T05:17:14;59839.25;;;12.95;100.00
7836;BME280;3963;42.658;23.298;2023-05-09T05:19:42;59840.88;;;12.96;100.00
7836;BME280;3963;42.658;23.298;2023-05-09T05:22:09;59845.19;;;12.86;100.00
7836;BME280;3963;42.658;23.298;2023-05-09T05:24:36;59862.03;;;12.92;100.00
7836;BME280;3963;42.658;23.298;2023-05-09T05:27:02;59844.91;;;12.93;100.00
7836;BME280;3963;42.658;23.298;2023-05-09T05:29:31;59832.63;;;12.98;100.00
7836;BME280;3963;42.658;23.298;2023-05-09T05:31:57;59868.66;;;13.17;100.00
7836;BME280;3963;42.658;23.298;2023-05-09T05:34:24;59879.69;;;13.35;100.00
7836;BME280;3963;42.658;23.298;2023-05-09T05:36:51;59911.09;;;13.40;100.00
7836;BME280;3963;42.658;23.298;2023-05-09T05:39:17;59907.78;;;13.35;100.00
7836;BME280;3963;42.658;23.298;2023-05-09T05:41:44;59911.53;;;13.38;100.00
7836;BME280;3963;42.658;23.298;2023-05-09T05:44:11;59874.13;;;13.40;100.00
7836;BME280;3963;42.658;23.298;2023-05-09T05:46:39;59885.63;;;13.41;100.00
7836;BME280;3963;42.658;23.298;2023-05-09T05:49:06;59916.38;;;13.43;100.00
7836;BME280;3963;42.658;23.298;2023-05-09T05:51:32;59899.59;;;13.39;100.00
7836;BME280;3963;42.658;23.298;2023-05-09T05:53:59;59911.97;;;13.36;100.00
7836;BME280;3963;42.658;23.298;2023-05-09T05:56:26;59889.75;;;13.10;100.00
7836;BME280;3963;42.658;23.298;2023-05-09T05:58:52;59872.16;;;13.28;100.00
7836;BME280;3963;42.658;23.298;2023-05-09T06:01:19;59859.53;;;13.09;100.00
7836;BME280;3963;42.658;23.298;2023-05-09T06:03:47;59838.63;;;13.06;100.00
7836;BME280;3963;42.658;23.298;2023-05-09T06:06:19;59851.81;;;12.97;100.00
7836;BME280;3963;42.658;23.298;2023-05-09T06:08:46;59836.91;;;13.02;100.00
7836;BME280;3963;42.658;23.298;2023-05-09T06:11:14;59851.28;;;13.11;100.00
7836;BME280;3963;42.658;23.298;2023-05-09T06:13:41;59878.44;;;13.29;100.00
7836;BME280;3963;42.658;23.298;2023-05-09T06:16:08;59857.91;;;13.37;100.00
7836;BME280;3963;42.658;23.298;2023-05-09T06:18:35;59924.09;;;13.25;100.00
7836;BME280;3963;42.658;23.298;2023-05-09T06:21:06;59886.69;;;13.27;100.00
7836;BME280;3963;42.658;23.298;2023-05-09T06:23:32;59897.88;;;13.35;100.00
7836;BME280;3963;42.658;23.298;2023-05-09T06:26:01;59867.84;;;13.39;100.00
7836;BME280;3963;42.658;23.298;2023-05-09T06:28:28;59859.88;;;13.19;100.00
7836;BME280;3963;42.658;23.298;2023-05-09T06:30:55;59873.34;;;13.17;100.00
7836;BME280;3963;42.658;23.298;2023-05-09T06:33:21;59868.31;;;13.22;100.00
7836;BME280;3963;42.658;23.298;2023-05-09T06:35:48;59896.28;;;13.19;100.00
7836;BME280;3963;42.658;23.298;2023-05-09T06:38:16;59867.06;;;13.30;100.00
7836;BME280;3963;42.658;23.298;2023-05-09T06:40:43;59909.09;;;13.43;100.00
7836;BME280;3963;42.658;23.298;2023-05-09T06:43:09;59895.09;;;13.45;100.00
7836;BME280;3963;42.658;23.298;2023-05-09T06:45:36;59888.03;;;13.36;100.00
7836;BME280;3963;42.658;23.298;2023-05-09T06:48:04;59910.63;;;13.42;100.00
7836;BME280;3963;42.658;23.298;2023-05-09T06:50:31;59907.94;;;13.54;100.00
7836;BME280;3963;42.658;23.298;2023-05-09T06:52:57;59926.41;;;13.62;100.00
7836;BME280;3963;42.658;23.298;2023-05-09T06:55:26;59943.81;;;13.68;100.00
7836;BME280;3963;42.658;23.298;2023-05-09T06:57:53;59927.84;;;13.58;100.00
7836;BME280;3963;42.658;23.298;2023-05-09T07:00:21;59948.84;;;13.63;100.00
7836;BME280;3963;42.658;23.298;2023-05-09T07:02:47;59916.88;;;13.72;100.00
7836;BME280;3963;42.658;23.298;2023-05-09T07:05:14;59932.44;;;13.55;100.00
7836;BME280;3963;42.658;23.298;2023-05-09T07:07:41;59889.53;;;13.49;100.00
7836;BME280;3963;42.658;23.298;2023-05-09T07:10:08;59919.78;;;13.51;100.00
7836;BME280;3963;42.658;23.298;2023-05-09T07:12:37;59909.19;;;13.46;100.00
7836;BME280;3963;42.658;23.298;2023-05-09T07:15:04;59895.19;;;13.47;100.00
7836;BME280;3963;42.658;23.298;2023-05-09T07:17:31;59855.72;;;13.49;100.00
7836;BME280;3963;42.658;23.298;2023-05-09T07:19:58;59911.34;;;13.33;100.00
7836;BME280;3963;42.658;23.298;2023-05-09T07:22:24;59895.66;;;13.45;100.00
7836;BME280;3963;42.658;23.298;2023-05-09T07:24:51;59840.94;;;13.43;100.00
7836;BME280;3963;42.658;23.298;2023-05-09T07:27:19;59885.50;;;13.38;100.00
7836;BME280;3963;42.658;23.298;2023-05-09T07:29:47;59871.38;;;13.20;100.00
7836;BME280;3963;42.658;23.298;2023-05-09T07:32:17;59870.63;;;13.29;100.00
7836;BME280;3963;42.658;23.298;2023-05-09T07:34:43;59870.28;;;13.34;100.00
7836;BME280;3963;42.658;23.298;2023-05-09T07:37:11;59863.28;;;13.27;100.00
7836;BME280;3963;42.658;23.298;2023-05-09T07:39:37;59890.81;;;13.26;100.00
7836;BME280;3963;42.658;23.298;2023-05-09T07:42:04;59893.84;;;13.39;100.00
7836;BME280;3963;42.658;23.298;2023-05-09T07:44:31;59901.84;;;13.44;100.00
7836;BME280;3963;42.658;23.298;2023-05-09T07:46:59;59899.03;;;13.53;100.00
7836;BME280;3963;42.658;23.298;2023-05-09T07:49:26;59894.28;;;13.51;100.00
7836;BME280;3963;42.658;23.298;2023-05-09T07:51:53;59902.56;;;13.35;100.00
7836;BME280;3963;42.658;23.298;2023-05-09T07:54:20;59902.19;;;13.39;100.00
7836;BME280;3963;42.658;23.298;2023-05-09T07:56:47;59919.13;;;13.62;100.00
7836;BME280;3963;42.658;23.298;2023-05-09T07:59:14;59923.53;;;13.69;100.00
7836;BME280;3963;42.658;23.298;2023-05-09T08:01:41;59953.75;;;13.85;100.00
7836;BME280;3963;42.658;23.298;2023-05-09T08:04:10;59989.56;;;14.11;100.00
7836;BME280;3963;42.658;23.298;2023-05-09T08:06:37;60054.03;;;14.23;100.00
7836;BME280;3963;42.658;23.298;2023-05-09T08:09:04;60019.72;;;14.25;100.00
7836;BME280;3963;42.658;23.298;2023-05-09T08:11:32;59994.31;;;14.13;100.00
7836;BME280;3963;42.658;23.298;2023-05-09T08:13:58;59982.72;;;14.10;100.00
7836;BME280;3963;42.658;23.298;2023-05-09T08:16:25;59985.16;;;14.19;100.00
7836;BME280;3963;42.658;23.298;2023-05-09T08:18:52;60014.50;;;14.39;100.00
7836;BME280;3963;42.658;23.298;2023-05-09T08:21:21;60047.84;;;14.54;100.00
7836;BME280;3963;42.658;23.298;2023-05-09T08:23:48;60028.53;;;14.53;100.00
7836;BME280;3963;42.658;23.298;2023-05-09T08:26:15;60030.25;;;14.42;100.00
7836;BME280;3963;42.658;23.298;2023-05-09T08:28:42;60022.44;;;14.27;100.00
7836;BME280;3963;42.658;23.298;2023-05-09T08:31:09;60030.13;;;14.25;100.00
7836;BME280;3963;42.658;23.298;2023-05-09T08:33:36;60018.28;;;14.14;100.00
7836;BME280;3963;42.658;23.298;2023-05-09T08:36:04;59990.44;;;14.22;100.00
7836;BME280;3963;42.658;23.298;2023-05-09T08:38:32;60056.19;;;14.39;100.00
7836;BME280;3963;42.658;23.298;2023-05-09T08:41:00;60026.81;;;14.34;100.00
7836;BME280;3963;42.658;23.298;2023-05-09T08:43:27;60038.69;;;14.45;100.00
7836;BME280;3963;42.658;23.298;2023-05-09T08:45:57;60083.25;;;14.67;100.00
7836;BME280;3963;42.658;23.298;2023-05-09T08:48:25;60036.91;;;14.38;100.00
7836;BME280;3963;42.658;23.298;2023-05-09T08:50:54;60010.38;;;14.26;100.00
7836;BME280;3963;42.658;23.298;2023-05-09T08:53:21;60011.00;;;14.29;100.00
7836;BME280;3963;42.658;23.298;2023-05-09T08:55:49;60002.03;;;14.11;100.00
7836;BME280;3963;42.658;23.298;2023-05-09T08:58:18;60010.75;;;14.21;100.00
7836;BME280;3963;42.658;23.298;2023-05-09T09:00:47;60012.91;;;14.23;100.00
7836;BME280;3963;42.658;23.298;2023-05-09T09:03:16;59998.78;;;14.22;100.00
7836;BME280;3963;42.658;23.298;2023-05-09T09:05:43;59989.81;;;14.04;100.00
7836;BME280;3963;42.658;23.298;2023-05-09T09:08:12;59930.25;;;13.82;100.00
7836;BME280;3963;42.658;23.298;2023-05-09T09:10:40;59934.53;;;13.86;100.00
7836;BME280;3963;42.658;23.298;2023-05-09T09:13:10;59999.09;;;14.01;100.00
7836;BME280;3963;42.658;23.298;2023-05-09T09:15:39;60052.31;;;14.19;100.00
7836;BME280;3963;42.658;23.298;2023-05-09T09:18:08;60020.91;;;14.14;100.00
7836;BME280;3963;42.658;23.298;2023-05-09T09:20:36;60003.41;;;13.90;100.00
7836;BME280;3963;42.658;23.298;2023-05-09T09:23:07;59957.00;;;13.88;100.00
7836;BME280;3963;42.658;23.298;2023-05-09T09:25:35;59956.69;;;13.95;100.00
7836;BME280;3963;42.658;23.298;2023-05-09T09:28:02;59949.34;;;13.93;100.00
7836;BME280;3963;42.658;23.298;2023-05-09T09:30:30;59968.75;;;13.97;100.00
7836;BME280;3963;42.658;23.298;2023-05-09T09:32:58;59949.91;;;13.64;100.00
7836;BME280;3963;42.658;23.298;2023-05-09T09:35:25;59915.28;;;13.56;100.00
7836;BME280;3963;42.658;23.298;2023-05-09T09:37:56;59906.84;;;13.39;100.00
7836;BME280;3963;42.658;23.298;2023-05-09T09:40:23;59906.22;;;13.36;100.00
7836;BME280;3963;42.658;23.298;2023-05-09T09:42:51;59903.00;;;13.47;100.00
7836;BME280;3963;42.658;23.298;2023-05-09T09:45:18;59898.63;;;13.41;100.00
7836;BME280;3963;42.658;23.298;2023-05-09T09:47:47;59892.31;;;13.54;100.00
7836;BME280;3963;42.658;23.298;2023-05-09T09:50:15;59947.66;;;13.60;100.00
7836;BME280;3963;42.658;23.298;2023-05-09T09:52:43;59906.31;;;13.53;100.00
7836;BME280;3963;42.658;23.298;2023-05-09T09:55:14;59940.50;;;13.63;100.00
7836;BME280;3963;42.658;23.298;2023-05-09T09:57:40;59922.66;;;13.58;100.00
7836;BME280;3963;42.658;23.298;2023-05-09T10:00:11;59914.84;;;13.58;100.00
7836;BME280;3963;42.658;23.298;2023-05-09T10:02:51;59926.22;;;13.42;100.00
7836;BME280;3963;42.658;23.298;2023-05-09T10:05:22;59948.47;;;13.53;100.00
7836;BME280;3963;42.658;23.298;2023-05-09T10:07:50;59968.75;;;13.67;100.00
7836;BME280;3963;42.658;23.298;2023-05-09T10:10:19;59956.91;;;13.71;100.00
7836;BME280;3963;42.658;23.298;2023-05-09T10:12:46;59970.72;;;13.79;100.00
7836;BME280;3963;42.658;23.298;2023-05-09T10:15:16;59954.50;;;13.76;100.00
7836;BME280;3963;42.658;23.298;2023-05-09T10:17:45;59977.38;;;13.75;100.00
7836;BME280;3963;42.658;23.298;2023-05-09T10:20:16;59949.44;;;13.81;100.00
7836;BME280;3963;42.658;23.298;2023-05-09T10:22:43;59978.78;;;13.86;100.00
7836;BME280;3963;42.658;23.298;2023-05-09T10:25:13;59971.25;;;13.94;100.00
7836;BME280;3963;42.658;23.298;2023-05-09T10:27:44;60007.78;;;14.11;100.00
7836;BME280;3963;42.658;23.298;2023-05-09T10:30:16;60011.47;;;14.27;100.00
7836;BME280;3963;42.658;23.298;2023-05-09T10:32:47;59994.75;;;14.26;100.00
7836;BME280;3963;42.658;23.298;2023-05-09T10:35:17;59983.81;;;13.96;100.00
7836;BME280;3963;42.658;23.298;2023-05-09T10:37:44;59963.19;;;13.72;100.00
7836;BME280;3963;42.658;23.298;2023-05-09T10:40:11;59946.84;;;13.81;100.00
7836;BME280;3963;42.658;23.298;2023-05-09T10:42:40;59961.03;;;13.84;100.00
7836;BME280;3963;42.658;23.298;2023-05-09T10:45:09;59970.34;;;13.83;100.00
7836;BME280;3963;42.658;23.298;2023-05-09T10:47:37;60007.16;;;13.94;100.00
7836;BME280;3963;42.658;23.298;2023-05-09T10:50:04;59991.72;;;14.13;100.00
7836;BME280;3963;42.658;23.298;2023-05-09T10:52:33;60010.28;;;14.23;100.00
7836;BME280;3963;42.658;23.298;2023-05-09T10:55:00;59983.63;;;14.06;100.00
7836;BME280;3963;42.658;23.298;2023-05-09T10:57:29;60017.09;;;14.25;100.00
7836;BME280;3963;42.658;23.298;2023-05-09T10:59:57;60032.03;;;14.34;100.00
7836;BME280;3963;42.658;23.298;2023-05-09T11:02:24;60069.41;;;14.59;100.00
7836;BME280;3963;42.658;23.298;2023-05-09T11:05:15;60123.41;;;14.98;100.00
7836;BME280;3963;42.658;23.298;2023-05-09T11:07:43;60133.84;;;14.98;100.00
7836;BME280;3963;42.658;23.298;2023-05-09T11:10:14;60139.78;;;14.88;100.00
7836;BME280;3963;42.658;23.298;2023-05-09T11:12:54;60064.09;;;14.57;100.00
7836;BME280;3963;42.658;23.298;2023-05-09T11:15:22;60144.63;;;14.78;100.00
7836;BME280;3963;42.658;23.298;2023-05-09T11:18:04;60138.34;;;15.07;100.00
7836;BME280;3963;42.658;23.298;2023-05-09T11:20:33;60112.41;;;15.12;100.00
7836;BME280;3963;42.658;23.298;2023-05-09T11:23:04;60112.63;;;14.73;100.00
7836;BME280;3963;42.658;23.298;2023-05-09T11:25:31;60035.72;;;14.35;100.00
7836;BME280;3963;42.658;23.298;2023-05-09T11:28:00;60005.19;;;13.97;100.00
7836;BME280;3963;42.658;23.298;2023-05-09T11:30:35;60003.03;;;13.95;100.00
7836;BME280;3963;42.658;23.298;2023-05-09T11:33:05;60061.59;;;14.45;100.00
7836;BME280;3963;42.658;23.298;2023-05-09T11:35:33;60094.66;;;14.66;100.00
7836;BME280;3963;42.658;23.298;2023-05-09T11:38:05;60083.31;;;14.84;100.00
7836;BME280;3963;42.658;23.298;2023-05-09T11:40:33;60068.59;;;14.66;100.00
7836;BME280;3963;42.658;23.298;2023-05-09T11:43:00;60028.25;;;14.30;100.00
7836;BME280;3963;42.658;23.298;2023-05-09T11:45:28;60033.03;;;14.18;100.00
7836;BME280;3963;42.658;23.298;2023-05-09T11:47:56;60059.97;;;14.43;100.00
7836;BME280;3963;42.658;23.298;2023-05-09T11:50:23;60046.59;;;14.48;100.00
7836;BME280;3963;42.658;23.298;2023-05-09T11:52:52;60085.41;;;14.69;100.00
7836;BME280;3963;42.658;23.298;2023-05-09T11:55:21;60081.25;;;14.85;100.00
7836;BME280;3963;42.658;23.298;2023-05-09T11:57:51;60122.06;;;14.89;100.00
7836;BME280;3963;42.658;23.298;2023-05-09T12:00:20;60119.53;;;14.91;100.00
7836;BME280;3963;42.658;23.298;2023-05-09T12:02:48;60097.34;;;14.83;100.00
7836;BME280;3963;42.658;23.298;2023-05-09T12:05:16;60106.59;;;14.79;100.00
7836;BME280;3963;42.658;23.298;2023-05-09T12:07:43;60026.09;;;14.14;100.00
7836;BME280;3963;42.658;23.298;2023-05-09T12:10:11;60020.28;;;14.11;100.00
7836;BME280;3963;42.658;23.298;2023-05-09T12:12:43;59986.59;;;14.01;100.00
7836;BME280;3963;42.658;23.298;2023-05-09T12:15:11;59950.97;;;13.80;100.00
7836;BME280;3963;42.658;23.298;2023-05-09T12:17:39;59924.09;;;13.55;100.00
7836;BME280;3963;42.658;23.298;2023-05-09T12:20:07;59894.28;;;13.51;100.00
7836;BME280;3963;42.658;23.298;2023-05-09T12:22:34;59912.34;;;13.46;100.00
7836;BME280;3963;42.658;23.298;2023-05-09T12:25:04;59916.09;;;13.50;100.00
7836;BME280;3963;42.658;23.298;2023-05-09T12:27:32;59846.06;;;13.25;100.00
7836;BME280;3963;42.658;23.298;2023-05-09T12:30:03;59888.13;;;13.23;100.00
7836;BME280;3963;42.658;23.298;2023-05-09T12:32:33;59910.25;;;13.32;100.00
7836;BME280;3963;42.658;23.298;2023-05-09T12:35:01;59862.41;;;13.16;100.00
7836;BME280;3963;42.658;23.298;2023-05-09T12:37:30;59857.38;;;12.92;100.00
7836;BME280;3963;42.658;23.298;2023-05-09T12:40:01;59868.03;;;13.00;100.00
7836;BME280;3963;42.658;23.298;2023-05-09T12:42:29;59845.97;;;12.94;100.00
7836;BME280;3963;42.658;23.298;2023-05-09T12:44:56;59845.19;;;12.86;100.00
7836;BME280;3963;42.658;23.298;2023-05-09T12:47:26;59827.72;;;12.76;100.00
7836;BME280;3963;42.658;23.298;2023-05-09T12:49:56;59804.50;;;12.52;100.00
7836;BME280;3963;42.658;23.298;2023-05-09T12:52:23;59795.94;;;12.44;100.00
7836;BME280;3963;42.658;23.298;2023-05-09T12:54:51;59761.34;;;12.21;100.00
7836;BME280;3963;42.658;23.298;2023-05-09T12:57:22;59766.38;;;12.31;100.00
7836;BME280;3963;42.658;23.298;2023-05-09T12:59:49;59749.72;;;12.30;100.00
7836;BME280;3963;42.658;23.298;2023-05-09T13:02:16;59771.38;;;12.41;100.00
7836;BME280;3963;42.658;23.298;2023-05-09T13:04:44;59775.06;;;12.56;100.00